createdAt,value
2023-03-20T00:00:25.608Z,29.02
2023-03-20T00:01:26.308Z,29.02
2023-03-20T00:02:25.624Z,29.02
2023-03-20T00:03:26.330Z,28.91
2023-03-20T00:04:25.576Z,29.02
2023-03-20T00:05:26.255Z,29.31
2023-03-20T00:06:26.275Z,29.84
2023-03-20T00:07:26.227Z,28.60
2023-03-20T00:08:28.628Z,28.81
2023-03-20T00:09:26.195Z,28.90
2023-03-20T00:10:26.204Z,29.21
2023-03-20T00:11:26.166Z,29.10
2023-03-20T00:12:26.201Z,29.21
2023-03-20T00:13:26.155Z,29.52
2023-03-20T00:14:26.140Z,29.10
2023-03-20T00:15:25.388Z,29.31
2023-03-20T00:16:25.420Z,29.41
2023-03-20T00:17:25.384Z,29.21
2023-03-20T00:18:25.362Z,29.10
2023-03-20T00:19:25.340Z,29.10
2023-03-20T00:20:25.314Z,29.00
2023-03-20T00:21:25.328Z,28.69
2023-03-20T00:22:25.313Z,28.80
2023-03-20T00:23:25.285Z,28.80
2023-03-20T00:24:25.298Z,28.49
2023-03-20T00:25:25.240Z,28.69
2023-03-20T00:26:25.250Z,28.49
2023-03-20T00:27:25.245Z,28.18
2023-03-20T00:28:25.228Z,28.18
2023-03-20T00:29:25.222Z,28.18
2023-03-20T00:30:25.194Z,28.28
2023-03-20T00:31:25.201Z,28.28
2023-03-20T00:32:25.184Z,28.17
2023-03-20T00:33:25.172Z,28.80
2023-03-20T00:34:25.153Z,28.28
2023-03-20T00:35:25.161Z,27.04
2023-03-20T00:36:25.097Z,27.87
2023-03-20T00:37:25.108Z,26.53
2023-03-20T00:38:25.099Z,26.62
2023-03-20T00:39:25.081Z,26.93
2023-03-20T00:40:25.054Z,26.32
2023-03-20T00:41:25.021Z,26.42
2023-03-20T00:42:25.070Z,26.52
2023-03-20T00:43:25.019Z,26.21
2023-03-20T00:44:25.007Z,26.32
2023-03-20T00:45:24.993Z,26.21
2023-03-20T00:46:25.004Z,26.52
2023-03-20T00:47:24.968Z,25.49
2023-03-20T00:48:24.952Z,25.68
2023-03-20T00:49:24.936Z,25.59
2023-03-20T00:50:24.913Z,25.48
2023-03-20T00:51:24.892Z,25.07
2023-03-20T00:52:24.660Z,24.87
2023-03-20T00:53:24.683Z,23.72
2023-03-20T00:54:24.560Z,24.03
2023-03-20T00:55:24.867Z,23.83
2023-03-20T00:56:24.656Z,24.24
2023-03-20T00:57:24.837Z,23.93
2023-03-20T00:58:24.844Z,23.71
2023-03-20T00:59:24.657Z,23.61
2023-03-20T01:00:24.808Z,24.02
2023-03-20T01:01:24.655Z,24.33
2023-03-20T01:02:24.864Z,24.33
2023-03-20T01:03:24.757Z,24.95
2023-03-20T01:04:24.104Z,25.15
2023-03-20T01:05:24.722Z,25.65
2023-03-20T01:06:24.682Z,25.14
2023-03-20T01:07:24.699Z,26.27
2023-03-20T01:08:24.670Z,26.06
2023-03-20T01:09:24.670Z,26.68
2023-03-20T01:10:24.659Z,26.78
2023-03-20T01:11:24.613Z,26.37
2023-03-20T01:12:24.625Z,26.47
2023-03-20T01:13:24.610Z,26.57
2023-03-20T01:14:24.596Z,26.78
2023-03-20T01:15:24.603Z,26.88
2023-03-20T01:16:24.596Z,26.78
2023-03-20T01:17:25.278Z,26.98
2023-03-20T01:18:25.397Z,27.60
2023-03-20T01:19:25.271Z,28.01
2023-03-20T01:20:24.522Z,27.50
2023-03-20T01:21:25.257Z,28.32
2023-03-20T01:22:25.219Z,28.22
2023-03-20T01:23:25.197Z,27.29
2023-03-20T01:24:25.206Z,27.39
2023-03-20T01:25:24.461Z,27.29
2023-03-20T01:26:24.412Z,27.70
2023-03-20T01:27:24.416Z,27.70
2023-03-20T01:28:24.421Z,28.32
2023-03-20T01:29:24.405Z,28.11
2023-03-20T01:30:24.378Z,27.91
2023-03-20T01:31:24.364Z,28.73
2023-03-20T01:32:24.351Z,28.22
2023-03-20T01:33:24.339Z,28.11
2023-03-20T01:34:24.338Z,28.42
2023-03-20T01:35:24.321Z,28.83
2023-03-20T01:36:24.279Z,29.35
2023-03-20T01:37:24.288Z,28.32
2023-03-20T01:38:24.254Z,28.63
2023-03-20T01:39:24.269Z,29.45
2023-03-20T01:40:24.242Z,29.65
2023-03-20T01:41:24.194Z,29.03
2023-03-20T01:42:24.218Z,28.83
2023-03-20T01:43:24.201Z,29.55
2023-03-20T01:44:24.180Z,29.55
2023-03-20T01:45:24.189Z,29.13
2023-03-20T01:46:24.182Z,30.36
2023-03-20T01:47:24.168Z,29.94
2023-03-20T01:48:24.147Z,30.15
2023-03-20T01:49:24.125Z,30.26
2023-03-20T01:50:24.124Z,31.28
2023-03-20T01:51:24.073Z,31.09
2023-03-20T01:52:24.304Z,30.37
2023-03-20T01:53:24.074Z,31.28
2023-03-20T01:54:24.063Z,30.66
2023-03-20T01:55:24.053Z,30.87
2023-03-20T01:56:24.002Z,31.07
2023-03-20T01:57:24.022Z,31.59
2023-03-20T01:58:24.011Z,31.38
2023-03-20T01:59:23.981Z,31.59
2023-03-20T02:00:23.710Z,32.31
2023-03-20T02:01:24.020Z,32.00
2023-03-20T02:02:23.698Z,32.51
2023-03-20T02:03:23.563Z,32.41
2023-03-20T02:04:23.734Z,32.31
2023-03-20T02:05:23.910Z,32.51
2023-03-20T02:06:23.716Z,32.71
2023-03-20T02:07:23.886Z,32.41
2023-03-20T02:08:23.711Z,31.69
2023-03-20T02:09:23.864Z,31.69
2023-03-20T02:10:23.834Z,31.18
2023-03-20T02:11:23.106Z,30.87
2023-03-20T02:12:23.795Z,30.87
2023-03-20T02:13:23.709Z,31.28
2023-03-20T02:14:23.707Z,30.98
2023-03-20T02:15:23.780Z,30.66
2023-03-20T02:16:23.132Z,30.87
2023-03-20T02:17:24.475Z,30.15
2023-03-20T02:18:23.746Z,30.36
2023-03-20T02:19:23.717Z,29.64
2023-03-20T02:20:23.717Z,29.85
2023-03-20T02:21:23.690Z,30.15
2023-03-20T02:22:23.091Z,30.36
2023-03-20T02:23:23.422Z,31.07
2023-03-20T02:24:23.660Z,31.38
2023-03-20T02:25:23.630Z,30.77
2023-03-20T02:26:23.624Z,31.28
2023-03-20T02:27:23.726Z,31.07
2023-03-20T02:28:23.599Z,31.69
2023-03-20T02:29:23.595Z,30.98
2023-03-20T02:30:23.571Z,31.07
2023-03-20T02:31:23.637Z,31.07
2023-03-20T02:32:23.517Z,30.56
2023-03-20T02:33:23.585Z,31.28
2023-03-20T02:34:23.287Z,30.56
2023-03-20T02:35:23.508Z,30.98
2023-03-20T02:36:23.488Z,31.69
2023-03-20T02:37:23.456Z,31.79
2023-03-20T02:38:23.461Z,31.18
2023-03-20T02:39:23.454Z,31.28
2023-03-20T02:40:22.764Z,31.69
2023-03-20T02:41:23.454Z,32.61
2023-03-20T02:42:23.393Z,32.31
2023-03-20T02:43:23.401Z,30.87
2023-03-20T02:44:23.384Z,31.69
2023-03-20T02:45:23.369Z,31.28
2023-03-20T02:46:23.389Z,30.98
2023-03-20T02:47:23.317Z,30.46
2023-03-20T02:48:22.606Z,30.87
2023-03-20T02:49:23.313Z,31.07
2023-03-20T02:50:23.306Z,30.87
2023-03-20T02:51:23.293Z,31.69
2023-03-20T02:52:23.239Z,32.31
2023-03-20T02:53:23.253Z,33.23
2023-03-20T02:54:23.250Z,32.51
2023-03-20T02:55:23.246Z,32.92
2023-03-20T02:56:22.489Z,32.82
2023-03-20T02:57:23.937Z,31.28
2023-03-20T02:58:23.181Z,31.28
2023-03-20T02:59:22.461Z,30.87
2023-03-20T03:00:23.159Z,31.18
2023-03-20T03:01:23.175Z,31.18
2023-03-20T03:02:23.137Z,31.90
2023-03-20T03:03:23.133Z,31.18
2023-03-20T03:04:22.386Z,31.28
2023-03-20T03:05:23.095Z,31.38
2023-03-20T03:06:23.118Z,31.59
2023-03-20T03:07:23.046Z,31.59
2023-03-20T03:08:23.054Z,30.87
2023-03-20T03:09:23.043Z,31.18
2023-03-20T03:10:23.035Z,30.87
2023-03-20T03:11:23.020Z,31.18
2023-03-20T03:12:22.985Z,31.28
2023-03-20T03:13:22.991Z,32.41
2023-03-20T03:14:22.981Z,31.59
2023-03-20T03:15:22.685Z,32.00
2023-03-20T03:16:22.845Z,31.59
2023-03-20T03:17:22.928Z,31.07
2023-03-20T03:18:22.920Z,31.38
2023-03-20T03:19:22.918Z,31.07
2023-03-20T03:20:22.766Z,30.26
2023-03-20T03:21:22.881Z,30.46
2023-03-20T03:22:22.772Z,30.56
2023-03-20T03:23:22.759Z,30.46
2023-03-20T03:24:37.330Z,30.26
2023-03-20T03:25:23.807Z,31.07
2023-03-20T03:26:23.521Z,31.07
2023-03-20T03:27:23.535Z,31.28
2023-03-20T03:28:22.770Z,31.69
2023-03-20T03:29:22.758Z,31.79
2023-03-20T03:30:22.781Z,32.92
2023-03-20T03:31:22.607Z,32.10
2023-03-20T03:32:23.446Z,31.18
2023-03-20T03:33:23.438Z,30.77
2023-03-20T03:34:23.422Z,31.38
2023-03-20T03:35:23.408Z,32.51
2023-03-20T03:36:23.401Z,31.28
2023-03-20T03:37:23.403Z,31.18
2023-03-20T03:38:23.365Z,30.66
2023-03-20T03:39:22.631Z,31.49
2023-03-20T03:40:23.329Z,31.18
2023-03-20T03:41:23.329Z,31.59
2023-03-20T03:42:23.315Z,31.90
2023-03-20T03:43:22.552Z,32.00
2023-03-20T03:44:22.603Z,30.87
2023-03-20T03:45:22.541Z,31.28
2023-03-20T03:46:22.547Z,30.77
2023-03-20T03:47:22.527Z,31.38
2023-03-20T03:48:22.489Z,31.38
2023-03-20T03:49:23.216Z,30.56
2023-03-20T03:50:22.479Z,30.87
2023-03-20T03:51:22.464Z,30.46
2023-03-20T03:52:22.499Z,31.07
2023-03-20T03:53:22.409Z,30.87
2023-03-20T03:54:22.417Z,30.87
2023-03-20T03:55:23.127Z,30.77
2023-03-20T03:56:22.443Z,30.56
2023-03-20T03:57:22.388Z,31.28
2023-03-20T03:58:22.371Z,30.87
2023-03-20T03:59:22.352Z,32.10
2023-03-20T04:00:22.352Z,31.18
2023-03-20T04:01:22.335Z,30.98
2023-03-20T04:02:22.347Z,30.77
2023-03-20T04:03:22.286Z,31.18
2023-03-20T04:04:22.381Z,31.90
2023-03-20T04:05:22.286Z,31.07
2023-03-20T04:06:22.290Z,30.56
2023-03-20T04:07:22.261Z,31.07
2023-03-20T04:08:22.216Z,31.90
2023-03-20T04:09:22.228Z,31.28
2023-03-20T04:10:22.210Z,32.41
2023-03-20T04:11:22.203Z,31.69
2023-03-20T04:12:22.183Z,32.20
2023-03-20T04:13:22.150Z,30.98
2023-03-20T04:14:22.152Z,30.36
2023-03-20T04:15:22.153Z,30.66
2023-03-20T04:16:22.149Z,31.69
2023-03-20T04:17:22.124Z,32.10
2023-03-20T04:18:22.084Z,31.90
2023-03-20T04:19:22.092Z,32.00
2023-03-20T04:20:21.852Z,32.31
2023-03-20T04:21:21.521Z,32.82
2023-03-20T04:22:21.838Z,32.41
2023-03-20T04:23:21.819Z,31.79
2023-03-20T04:24:21.812Z,32.20
2023-03-20T04:25:22.018Z,31.28
2023-03-20T04:26:21.265Z,31.07
2023-03-20T04:27:21.979Z,31.18
2023-03-20T04:28:21.317Z,31.28
2023-03-20T04:29:21.958Z,30.98
2023-03-20T04:30:21.954Z,30.36
2023-03-20T04:31:21.445Z,30.26
2023-03-20T04:32:21.187Z,29.85
2023-03-20T04:33:21.890Z,29.53
2023-03-20T04:34:21.552Z,30.56
2023-03-20T04:35:21.551Z,30.56
2023-03-20T04:36:21.377Z,31.07
2023-03-20T04:37:21.630Z,32.41
2023-03-20T04:38:22.465Z,31.07
2023-03-20T04:39:21.826Z,30.46
2023-03-20T04:40:21.715Z,31.28
2023-03-20T04:41:21.802Z,31.28
2023-03-20T04:42:21.574Z,32.31
2023-03-20T04:43:22.501Z,32.10
2023-03-20T04:44:21.761Z,31.79
2023-03-20T04:45:22.453Z,31.90
2023-03-20T04:46:22.492Z,31.79
2023-03-20T04:47:21.702Z,31.49
2023-03-20T04:48:22.422Z,31.07
2023-03-20T04:49:22.412Z,31.07
2023-03-20T04:50:21.690Z,31.59
2023-03-20T04:51:22.371Z,31.90
2023-03-20T04:52:21.665Z,32.61
2023-03-20T04:53:22.380Z,32.61
2023-03-20T04:54:22.341Z,32.71
2023-03-20T04:55:21.601Z,31.90
2023-03-20T04:56:21.595Z,31.79
2023-03-20T04:57:21.596Z,32.61
2023-03-20T04:58:21.561Z,32.51
2023-03-20T04:59:21.557Z,31.18
2023-03-20T05:00:21.555Z,30.98
2023-03-20T05:01:21.587Z,30.66
2023-03-20T05:02:21.524Z,31.28
2023-03-20T05:03:23.927Z,32.00
2023-03-20T05:04:21.505Z,31.49
2023-03-20T05:05:21.474Z,31.49
2023-03-20T05:06:21.496Z,32.31
2023-03-20T05:07:21.453Z,33.12
2023-03-20T05:08:21.424Z,32.71
2023-03-20T05:09:21.386Z,31.90
2023-03-20T05:10:21.423Z,32.31
2023-03-20T05:11:21.390Z,32.51
2023-03-20T05:12:21.379Z,33.33
2023-03-20T05:13:21.360Z,34.36
2023-03-20T05:14:21.328Z,33.84
2023-03-20T05:15:21.331Z,33.74
2023-03-20T05:16:21.352Z,33.54
2023-03-20T05:17:21.302Z,32.92
2023-03-20T05:18:21.285Z,32.51
2023-03-20T05:19:21.258Z,32.41
2023-03-20T05:20:21.278Z,32.41
2023-03-20T05:21:21.262Z,31.79
2023-03-20T05:22:21.243Z,31.49
2023-03-20T05:23:20.954Z,31.69
2023-03-20T05:24:21.195Z,31.18
2023-03-20T05:25:21.195Z,30.66
2023-03-20T05:26:21.184Z,30.98
2023-03-20T05:27:21.175Z,31.38
2023-03-20T05:28:21.173Z,30.77
2023-03-20T05:29:21.119Z,30.87
2023-03-20T05:30:21.136Z,30.36
2023-03-20T05:31:21.128Z,29.74
2023-03-20T05:32:20.858Z,29.94
2023-03-20T05:33:20.861Z,30.36
2023-03-20T05:34:20.859Z,30.05
2023-03-20T05:35:20.858Z,29.23
2023-03-20T05:36:21.140Z,29.02
2023-03-20T05:37:21.052Z,29.53
2023-03-20T05:38:20.875Z,29.02
2023-03-20T05:39:20.870Z,28.31
2023-03-20T05:40:20.978Z,28.51
2023-03-20T05:41:20.867Z,28.20
2023-03-20T05:42:20.968Z,28.61
2023-03-20T05:43:20.874Z,28.82
2023-03-20T05:44:20.905Z,28.92
2023-03-20T05:45:20.927Z,28.92
2023-03-20T05:46:20.957Z,28.92
2023-03-20T05:47:20.875Z,28.10
2023-03-20T05:48:20.888Z,28.51
2023-03-20T05:49:20.855Z,27.69
2023-03-20T05:50:21.611Z,27.38
2023-03-20T05:51:21.573Z,27.18
2023-03-20T05:52:20.831Z,26.88
2023-03-20T05:53:20.819Z,25.96
2023-03-20T05:54:20.783Z,26.68
2023-03-20T05:55:20.802Z,25.96
2023-03-20T05:56:20.816Z,25.96
2023-03-20T05:57:21.506Z,26.06
2023-03-20T05:58:20.761Z,26.47
2023-03-20T05:59:20.723Z,26.06
2023-03-20T06:00:20.741Z,25.96
2023-03-20T06:01:20.708Z,25.75
2023-03-20T06:02:20.776Z,25.75
2023-03-20T06:03:20.750Z,26.68
2023-03-20T06:04:20.657Z,25.85
2023-03-20T06:05:20.649Z,26.47
2023-03-20T06:06:20.653Z,26.68
2023-03-20T06:07:20.635Z,26.88
2023-03-20T06:08:20.624Z,27.51
2023-03-20T06:09:20.579Z,26.79
2023-03-20T06:10:20.597Z,26.88
2023-03-20T06:11:20.575Z,26.68
2023-03-20T06:12:20.572Z,27.72
2023-03-20T06:13:20.555Z,27.72
2023-03-20T06:14:21.275Z,28.74
2023-03-20T06:15:20.527Z,28.54
2023-03-20T06:16:20.576Z,28.85
2023-03-20T06:17:20.505Z,28.33
2023-03-20T06:18:20.491Z,28.95
2023-03-20T06:19:20.443Z,29.05
2023-03-20T06:20:20.466Z,28.85
2023-03-20T06:21:20.446Z,28.85
2023-03-20T06:22:20.434Z,29.46
2023-03-20T06:23:20.412Z,28.95
2023-03-20T06:24:20.383Z,30.28
2023-03-20T06:25:20.391Z,30.08
2023-03-20T06:26:20.375Z,29.25
2023-03-20T06:27:21.001Z,29.36
2023-03-20T06:28:19.901Z,29.77
2023-03-20T06:29:20.319Z,31.00
2023-03-20T06:30:20.322Z,30.90
2023-03-20T06:31:19.950Z,30.18
2023-03-20T06:32:20.290Z,30.28
2023-03-20T06:33:20.289Z,30.49
2023-03-20T06:34:20.228Z,31.41
2023-03-20T06:35:20.292Z,31.62
2023-03-20T06:36:20.237Z,32.13
2023-03-20T06:37:20.912Z,34.39
2023-03-20T06:38:20.206Z,33.26
2023-03-20T06:39:20.196Z,34.28
2023-03-20T06:40:20.183Z,33.87
2023-03-20T06:41:33.797Z,34.90
2023-03-20T06:42:20.874Z,35.21
2023-03-20T06:43:19.912Z,34.49
2023-03-20T06:44:19.912Z,36.85
2023-03-20T06:45:20.133Z,36.85
2023-03-20T06:46:20.122Z,37.16
2023-03-20T06:47:19.923Z,36.96
2023-03-20T06:48:20.069Z,36.65
2023-03-20T06:49:20.039Z,37.57
2023-03-20T06:50:19.930Z,37.37
2023-03-20T06:51:20.025Z,37.77
2023-03-20T06:52:20.037Z,37.88
2023-03-20T06:53:19.929Z,37.57
2023-03-20T06:54:19.961Z,38.19
2023-03-20T06:55:19.937Z,37.37
2023-03-20T06:56:19.963Z,37.77
2023-03-20T06:57:19.953Z,39.32
2023-03-20T06:58:19.924Z,38.60
2023-03-20T06:59:20.658Z,37.77
2023-03-20T07:00:19.916Z,37.57
2023-03-20T07:01:20.720Z,38.48
2023-03-20T07:02:19.885Z,40.14
2023-03-20T07:03:19.889Z,39.50
2023-03-20T07:04:20.585Z,40.75
2023-03-20T07:05:20.623Z,40.86
2023-03-20T07:06:20.547Z,41.58
2023-03-20T07:07:19.826Z,42.71
2023-03-20T07:08:20.534Z,40.86
2023-03-20T07:09:20.538Z,40.86
2023-03-20T07:10:20.005Z,40.96
2023-03-20T07:11:20.496Z,43.81
2023-03-20T07:12:19.756Z,44.02
2023-03-20T07:13:19.741Z,44.56
2023-03-20T07:14:19.706Z,44.76
2023-03-20T07:15:19.721Z,44.23
2023-03-20T07:16:19.720Z,44.23
2023-03-20T07:17:19.692Z,48.13
2023-03-20T07:18:19.662Z,50.28
2023-03-20T07:19:18.922Z,50.90
2023-03-20T07:20:19.616Z,48.82
2023-03-20T07:21:19.633Z,51.28
2023-03-20T07:22:19.642Z,52.64
2023-03-20T07:23:19.592Z,51.31
2023-03-20T07:24:19.595Z,49.33
2023-03-20T07:25:28.882Z,57.03
2023-03-20T07:26:20.562Z,55.38
2023-03-20T07:27:18.825Z,53.97
2023-03-20T07:28:19.531Z,49.85
2023-03-20T07:29:19.600Z,52.20
2023-03-20T07:30:19.491Z,55.59
2023-03-20T07:31:19.550Z,58.28
2023-03-20T07:32:19.487Z,50.99
2023-03-20T07:33:19.600Z,52.44
2023-03-20T07:34:19.457Z,52.64
2023-03-20T07:35:18.802Z,50.46
2023-03-20T07:36:19.452Z,52.61
2023-03-20T07:37:19.420Z,56.10
2023-03-20T07:38:20.117Z,60.51
2023-03-20T07:39:19.394Z,64.41
2023-03-20T07:40:19.367Z,61.02
2023-03-20T07:41:19.362Z,65.54
2023-03-20T07:42:19.343Z,66.77
2023-03-20T07:43:18.633Z,64.51
2023-03-20T07:44:19.321Z,68.10
2023-03-20T07:45:19.293Z,69.23
2023-03-20T07:46:19.396Z,66.25
2023-03-20T07:47:19.276Z,73.44
2023-03-20T07:48:19.261Z,68.21
2023-03-20T07:49:18.848Z,67.97
2023-03-20T07:50:19.256Z,68.99
2023-03-20T07:51:18.989Z,73.27
2023-03-20T07:52:18.966Z,73.27
2023-03-20T07:53:18.963Z,77.64
2023-03-20T07:54:18.982Z,81.70
2023-03-20T07:55:18.964Z,76.98
2023-03-20T07:56:19.136Z,80.43
2023-03-20T07:57:19.134Z,82.43
2023-03-20T07:58:19.105Z,79.74
2023-03-20T07:59:18.973Z,83.62
2023-03-20T08:00:18.620Z,85.47
2023-03-20T08:01:19.072Z,85.53
2023-03-20T08:02:19.088Z,91.67
2023-03-20T08:03:19.257Z,91.81
2023-03-20T08:04:18.705Z,99.52
2023-03-20T08:05:19.006Z,99.99
2023-03-20T08:06:19.014Z,99.99
2023-03-20T08:07:18.257Z,97.06
2023-03-20T08:08:19.028Z,98.50
2023-03-20T08:09:18.971Z,99.19
2023-03-20T08:10:18.390Z,97.09
2023-03-20T08:11:18.710Z,97.49
2023-03-20T08:12:18.937Z,95.60
2023-03-20T08:13:19.017Z,94.68
2023-03-20T08:14:18.902Z,96.11
2023-03-20T08:15:18.872Z,95.03
2023-03-20T08:16:19.636Z,95.39
2023-03-20T08:17:21.418Z,96.47
2023-03-20T08:18:19.571Z,96.53
2023-03-20T08:19:19.562Z,95.64
2023-03-20T08:20:19.550Z,94.89
2023-03-20T08:21:19.546Z,95.60
2023-03-20T08:22:19.520Z,96.78
2023-03-20T08:23:20.621Z,93.60
2023-03-20T08:24:18.772Z,96.10
2023-03-20T08:25:18.720Z,93.79
2023-03-20T08:26:18.737Z,90.41
2023-03-20T08:27:18.784Z,90.99
2023-03-20T08:28:19.436Z,90.47
2023-03-20T08:29:18.710Z,93.29
2023-03-20T08:30:18.673Z,93.44
2023-03-20T08:31:18.725Z,93.80
2023-03-20T08:32:18.649Z,94.17
2023-03-20T08:33:18.711Z,99.99
2023-03-20T08:34:18.621Z,96.28
2023-03-20T08:35:45.508Z,98.52
2023-03-20T08:36:19.692Z,99.24
2023-03-20T08:37:18.599Z,99.70
2023-03-20T08:38:18.578Z,99.99
2023-03-20T08:39:19.306Z,98.77
2023-03-20T08:40:18.535Z,95.28
2023-03-20T08:41:18.550Z,93.13
2023-03-20T08:42:18.622Z,87.69
2023-03-20T08:43:18.511Z,89.94
2023-03-20T08:44:18.497Z,85.46
2023-03-20T08:45:18.460Z,89.81
2023-03-20T08:46:18.497Z,78.02
2023-03-20T08:47:18.446Z,74.63
2023-03-20T08:48:18.448Z,67.36
2023-03-20T08:49:18.443Z,65.38
2023-03-20T08:50:18.898Z,64.94
2023-03-20T08:51:18.394Z,70.09
2023-03-20T08:52:18.396Z,63.12
2023-03-20T08:53:19.851Z,61.52
2023-03-20T08:54:18.396Z,59.11
2023-03-20T08:55:18.328Z,57.32
2023-03-20T08:56:18.322Z,55.26
2023-03-20T08:57:18.020Z,55.73
2023-03-20T08:58:18.321Z,54.91
2023-03-20T08:59:18.021Z,57.88
2023-03-20T09:00:18.021Z,55.46
2023-03-20T09:01:18.110Z,56.49
2023-03-20T09:02:18.064Z,59.07
2023-03-20T09:03:18.107Z,58.47
2023-03-20T09:04:18.078Z,56.64
2023-03-20T09:05:18.185Z,55.76
2023-03-20T09:06:17.938Z,56.04
2023-03-20T09:07:18.028Z,58.86
2023-03-20T09:08:18.164Z,64.34
2023-03-20T09:09:18.148Z,70.76
2023-03-20T09:10:18.125Z,67.58
2023-03-20T09:11:18.116Z,66.84
2023-03-20T09:12:17.424Z,65.30
2023-03-20T09:13:26.795Z,60.17
2023-03-20T09:14:19.093Z,61.29
2023-03-20T09:15:18.050Z,61.41
2023-03-20T09:16:18.077Z,63.50
2023-03-20T09:17:18.035Z,62.99
2023-03-20T09:18:18.750Z,61.95
2023-03-20T09:19:17.676Z,60.88
2023-03-20T09:20:18.740Z,62.24
2023-03-20T09:21:18.706Z,59.08
2023-03-20T09:22:18.699Z,58.04
2023-03-20T09:23:18.691Z,57.86
2023-03-20T09:24:18.676Z,56.07
2023-03-20T09:25:18.676Z,55.99
2023-03-20T09:26:18.635Z,54.40
2023-03-20T09:27:18.654Z,56.40
2023-03-20T09:28:18.648Z,54.68
2023-03-20T09:29:18.596Z,56.87
2023-03-20T09:30:18.611Z,56.12
2023-03-20T09:31:18.663Z,55.89
2023-03-20T09:32:17.861Z,53.20
2023-03-20T09:33:17.864Z,54.68
2023-03-20T09:34:17.825Z,56.70
2023-03-20T09:35:17.794Z,55.94
2023-03-20T09:36:17.836Z,55.87
2023-03-20T09:37:17.807Z,55.90
2023-03-20T09:38:17.761Z,56.70
2023-03-20T09:39:17.775Z,55.57
2023-03-20T09:40:17.708Z,56.85
2023-03-20T09:41:17.723Z,52.14
2023-03-20T09:42:17.704Z,52.17
2023-03-20T09:43:17.684Z,51.26
2023-03-20T09:44:17.675Z,49.76
2023-03-20T09:45:17.634Z,51.01
2023-03-20T09:46:17.687Z,50.73
2023-03-20T09:47:20.732Z,49.55
2023-03-20T09:48:17.622Z,48.49
2023-03-20T09:49:17.615Z,49.97
2023-03-20T09:50:17.581Z,51.20
2023-03-20T09:51:18.293Z,50.62
2023-03-20T09:52:17.564Z,52.04
2023-03-20T09:53:17.604Z,52.94
2023-03-20T09:54:17.546Z,51.99
2023-03-20T09:55:17.568Z,50.68
2023-03-20T09:56:17.483Z,51.73
2023-03-20T09:57:17.508Z,53.47
2023-03-20T09:58:17.484Z,53.30
2023-03-20T09:59:17.473Z,54.38
2023-03-20T10:00:17.478Z,56.07
2023-03-20T10:01:17.428Z,52.46
2023-03-20T10:02:17.461Z,53.50
2023-03-20T10:03:17.430Z,52.84
2023-03-20T10:04:17.436Z,54.28
2023-03-20T10:05:17.391Z,52.08
2023-03-20T10:06:17.368Z,54.03
2023-03-20T10:07:17.370Z,54.71
2023-03-20T10:08:17.357Z,53.65
2023-03-20T10:09:17.354Z,53.50
2023-03-20T10:10:17.085Z,52.01
2023-03-20T10:11:17.084Z,52.08
2023-03-20T10:12:17.074Z,50.42
2023-03-20T10:13:17.080Z,51.71
2023-03-20T10:14:17.081Z,50.19
2023-03-20T10:15:17.257Z,51.86
2023-03-20T10:16:17.262Z,50.04
2023-03-20T10:17:16.501Z,50.04
2023-03-20T10:18:17.229Z,50.34
2023-03-20T10:19:16.479Z,51.03
2023-03-20T10:20:16.571Z,50.54
2023-03-20T10:21:17.149Z,50.46
2023-03-20T10:22:16.622Z,52.31
2023-03-20T10:23:17.156Z,52.81
2023-03-20T10:24:17.153Z,52.81
2023-03-20T10:25:16.708Z,49.80
2023-03-20T10:26:17.090Z,51.30
2023-03-20T10:27:16.370Z,50.99
2023-03-20T10:28:17.095Z,51.55
2023-03-20T10:29:16.818Z,51.88
2023-03-20T10:30:16.857Z,52.51
2023-03-20T10:31:17.117Z,54.03
2023-03-20T10:32:17.038Z,51.98
2023-03-20T10:33:17.045Z,52.66
2023-03-20T10:34:17.010Z,52.39
2023-03-20T10:35:17.696Z,51.14
2023-03-20T10:36:17.709Z,52.39
2023-03-20T10:37:17.686Z,56.01
2023-03-20T10:38:17.661Z,52.08
2023-03-20T10:39:17.656Z,53.07
2023-03-20T10:40:17.657Z,53.91
2023-03-20T10:41:17.638Z,53.22
2023-03-20T10:42:16.901Z,55.47
2023-03-20T10:43:16.912Z,53.52
2023-03-20T10:44:16.890Z,54.64
2023-03-20T10:45:16.842Z,53.42
2023-03-20T10:46:18.481Z,54.36
2023-03-20T10:47:16.895Z,55.25
2023-03-20T10:48:16.813Z,59.20
2023-03-20T10:49:16.793Z,55.04
2023-03-20T10:50:16.786Z,53.30
2023-03-20T10:51:16.758Z,56.26
2023-03-20T10:52:17.465Z,56.80
2023-03-20T10:53:16.734Z,56.87
2023-03-20T10:54:15.994Z,55.76
2023-03-20T10:55:16.726Z,55.63
2023-03-20T10:56:17.219Z,56.98
2023-03-20T10:57:16.690Z,56.37
2023-03-20T10:58:16.669Z,56.12
2023-03-20T10:59:16.670Z,57.54
2023-03-20T11:00:16.646Z,57.00
2023-03-20T11:01:16.635Z,57.76
2023-03-20T11:02:16.622Z,58.06
2023-03-20T11:03:16.612Z,55.30
2023-03-20T11:04:16.606Z,55.58
2023-03-20T11:05:16.582Z,56.67
2023-03-20T11:06:16.555Z,55.76
2023-03-20T11:07:16.551Z,57.15
2023-03-20T11:08:16.544Z,54.21
2023-03-20T11:09:16.521Z,56.09
2023-03-20T11:10:16.524Z,57.04
2023-03-20T11:11:16.484Z,58.44
2023-03-20T11:12:16.483Z,56.92
2023-03-20T11:13:16.470Z,57.90
2023-03-20T11:14:16.476Z,58.20
2023-03-20T11:15:16.454Z,57.93
2023-03-20T11:16:16.443Z,59.25
2023-03-20T11:17:16.423Z,59.95
2023-03-20T11:18:16.427Z,56.82
2023-03-20T11:19:16.140Z,55.63
2023-03-20T11:20:16.138Z,56.97
2023-03-20T11:21:16.133Z,56.99
2023-03-20T11:22:16.141Z,58.24
2023-03-20T11:23:16.160Z,59.36
2023-03-20T11:24:16.148Z,59.66
2023-03-20T11:25:16.343Z,60.40
2023-03-20T11:26:16.144Z,58.37
2023-03-20T11:27:16.273Z,58.60
2023-03-20T11:28:16.293Z,57.66
2023-03-20T11:29:16.144Z,57.59
2023-03-20T11:30:16.262Z,55.93
2023-03-20T11:31:16.233Z,55.32
2023-03-20T11:32:16.243Z,57.15
2023-03-20T11:33:16.353Z,57.86
2023-03-20T11:34:16.159Z,55.45
2023-03-20T11:35:16.892Z,56.74
2023-03-20T11:36:17.148Z,56.21
2023-03-20T11:37:16.139Z,57.25
2023-03-20T11:38:16.836Z,56.11
2023-03-20T11:39:16.147Z,57.30
2023-03-20T11:40:16.159Z,55.07
2023-03-20T11:41:16.805Z,55.37
2023-03-20T11:42:16.075Z,55.53
2023-03-20T11:43:16.777Z,55.32
2023-03-20T11:44:16.755Z,55.73
2023-03-20T11:45:16.047Z,54.61
2023-03-20T11:46:16.822Z,54.44
2023-03-20T11:47:16.722Z,53.42
2023-03-20T11:48:16.711Z,54.00
2023-03-20T11:49:16.692Z,54.24
2023-03-20T11:50:16.758Z,56.29
2023-03-20T11:51:15.962Z,56.29
2023-03-20T11:52:15.912Z,54.54
2023-03-20T11:53:16.640Z,53.83
2023-03-20T11:54:15.914Z,53.63
2023-03-20T11:55:15.888Z,54.74
2023-03-20T11:56:15.909Z,54.69
2023-03-20T11:57:15.848Z,55.73
2023-03-20T11:58:15.849Z,55.43
2023-03-20T11:59:15.852Z,54.21
2023-03-20T12:00:15.879Z,52.76
2023-03-20T12:01:15.808Z,52.05
2023-03-20T12:02:15.819Z,51.62
2023-03-20T12:03:15.812Z,50.88
2023-03-20T12:04:15.774Z,49.21
2023-03-20T12:05:16.844Z,50.53
2023-03-20T12:06:15.744Z,51.54
2023-03-20T12:07:15.700Z,50.60
2023-03-20T12:08:15.721Z,52.66
2023-03-20T12:09:15.701Z,52.23
2023-03-20T12:10:15.872Z,53.17
2023-03-20T12:11:15.680Z,53.83
2023-03-20T12:12:15.640Z,53.45
2023-03-20T12:13:15.630Z,53.04
2023-03-20T12:14:15.632Z,54.33
2023-03-20T12:15:15.617Z,55.20
2023-03-20T12:16:15.626Z,54.13
2023-03-20T12:17:15.569Z,53.06
2023-03-20T12:18:15.580Z,52.94
2023-03-20T12:19:15.557Z,52.98
2023-03-20T12:20:15.557Z,53.50
2023-03-20T12:21:16.259Z,54.21
2023-03-20T12:22:15.179Z,54.90
2023-03-20T12:23:15.507Z,54.26
2023-03-20T12:24:15.495Z,53.72
2023-03-20T12:25:15.185Z,52.23
2023-03-20T12:26:15.480Z,53.11
2023-03-20T12:27:15.188Z,54.36
2023-03-20T12:28:15.183Z,55.40
2023-03-20T12:29:15.178Z,55.10
2023-03-20T12:30:15.188Z,54.41
2023-03-20T12:31:15.221Z,53.17
2023-03-20T12:32:16.105Z,52.86
2023-03-20T12:33:15.202Z,52.71
2023-03-20T12:34:15.358Z,53.02
2023-03-20T12:35:16.738Z,51.09
2023-03-20T12:36:15.331Z,52.06
2023-03-20T12:37:15.325Z,51.45
2023-03-20T12:38:15.194Z,51.93
2023-03-20T12:39:15.284Z,52.94
2023-03-20T12:40:15.275Z,53.34
2023-03-20T12:41:14.628Z,54.03
2023-03-20T12:42:15.248Z,54.31
2023-03-20T12:43:15.216Z,53.47
2023-03-20T12:44:15.221Z,53.96
2023-03-20T12:45:15.204Z,53.12
2023-03-20T12:46:14.468Z,53.34
2023-03-20T12:47:15.182Z,53.27
2023-03-20T12:48:15.132Z,54.49
2023-03-20T12:49:15.891Z,55.20
2023-03-20T12:50:14.882Z,54.28
2023-03-20T12:51:15.137Z,54.11
2023-03-20T12:52:15.113Z,54.61